createdAt,value
2023-04-16T21:00:17.146Z,102683.38
2023-04-16T21:02:44.722Z,102681.00
2023-04-16T21:05:14.469Z,102674.59
2023-04-16T21:07:42.339Z,102678.41
2023-04-16T21:10:10.793Z,102671.59
2023-04-16T21:12:39.434Z,102666.69
2023-04-16T21:15:07.571Z,102674.28
2023-04-16T21:17:34.847Z,102662.72
2023-04-16T21:20:02.525Z,102671.41
2023-04-16T21:22:30.075Z,102667.72
2023-04-16T21:24:57.358Z,102662.31
2023-04-16T21:27:24.697Z,102663.09
2023-04-16T21:29:52.250Z,102679.09
2023-04-16T21:32:19.592Z,102664.69
2023-04-16T21:34:47.051Z,102654.56
2023-04-16T21:37:14.300Z,102665.94
2023-04-16T21:39:41.550Z,102665.50
2023-04-16T21:42:08.842Z,102654.63
2023-04-16T21:44:36.298Z,102646.03
2023-04-16T21:47:03.819Z,102662.16
2023-04-16T21:49:31.262Z,102656.72
2023-04-16T21:52:20.644Z,102662.91
2023-04-16T21:54:48.036Z,102657.06
2023-04-16T21:57:15.270Z,102657.63
2023-04-16T21:59:42.549Z,102646.34
2023-04-16T22:02:09.959Z,102658.16
2023-04-16T22:04:37.756Z,102649.63
2023-04-16T22:07:09.239Z,102654.63
2023-04-16T22:09:36.732Z,102657.56
2023-04-16T22:12:07.126Z,102653.34
2023-04-16T22:14:42.103Z,102656.03
2023-04-16T22:17:15.201Z,102652.28
2023-04-16T22:19:42.750Z,102650.09
2023-04-16T22:22:10.158Z,102652.09
2023-04-16T22:24:37.474Z,102646.25
2023-04-16T22:27:04.781Z,102648.69
2023-04-16T22:29:32.064Z,102642.69
2023-04-16T22:32:00.992Z,102651.28
2023-04-16T22:34:28.416Z,102647.47
2023-04-16T22:36:56.569Z,102651.72
2023-04-16T22:39:23.793Z,102639.47
2023-04-16T22:41:51.868Z,102651.94
2023-04-16T22:44:19.178Z,102652.28
2023-04-16T22:46:47.178Z,102643.84
2023-04-16T22:49:14.460Z,102637.09
2023-04-16T22:51:41.928Z,102651.06
2023-04-16T22:54:13.646Z,102655.13
2023-04-16T22:56:41.564Z,102654.28
2023-04-16T22:59:09.108Z,102650.47
2023-04-16T23:01:36.852Z,102650.53
2023-04-16T23:04:04.322Z,102649.53
2023-04-16T23:06:31.886Z,102652.28
2023-04-16T23:08:59.188Z,102651.19
2023-04-16T23:11:26.397Z,102653.88
2023-04-16T23:13:53.845Z,102645.59
2023-04-16T23:16:21.248Z,102647.69
2023-04-16T23:18:48.581Z,102642.22
2023-04-16T23:21:15.925Z,102651.53
2023-04-16T23:23:43.150Z,102642.78
2023-04-16T23:26:10.592Z,102647.69
2023-04-16T23:28:37.920Z,102669.50
2023-04-16T23:31:07.139Z,102642.25
2023-04-16T23:33:34.849Z,102641.66
2023-04-16T23:36:02.178Z,102647.78
2023-04-16T23:38:29.749Z,102646.19
2023-04-16T23:40:57.085Z,102653.19
2023-04-16T23:43:24.552Z,102652.66
2023-04-16T23:45:51.873Z,102648.13
2023-04-16T23:48:19.327Z,102654.00
2023-04-16T23:50:46.858Z,102653.31
2023-04-16T23:53:14.295Z,102653.41
2023-04-16T23:55:41.666Z,102655.06
2023-04-16T23:58:08.968Z,102650.94
